EH-0001 weather

Tifariti Airstrip
Tifariti, Western Sahara

Public forecast

Using degrees Celsius for public forecast. Weather courtesy of forecast.io.

Closest aviation weather report (METAR) to Tifariti Airstrip

Report is more than 6 hours old.

Closest report is Smara Airport, 69.6 nm (128.9 km) WNW. Retrieved 2016/05/22 16:00 UTC (4 years ago):

GMMA 221600Z 31010KT CAVOK 35/10 Q1013 NOSIG

Closest aviation forecast (TAF) to Tifariti Airstrip

Forecast is more than 12 hours old.

Closest forecast is Smara Airport, 69.6 nm (128.9 km) WNW. Retrieved 2018/01/20 12:00 UTC (2 years ago):

TAF GMMA 201100Z 2012/2118 34006KT 6000 SCT010 TEMPO 2012/2017 04006KT CAVOK TEMPO 2020/2108 VRB02KT 2000 BR BKN010